createdAt,value
2022-11-08T00:01:08.261Z,5.50
2022-11-08T00:03:45.459Z,7.80
2022-11-08T00:06:38.319Z,8.90
2022-11-08T00:09:32.793Z,9.10
2022-11-08T00:12:27.801Z,9.80
2022-11-08T00:15:04.399Z,9.20
2022-11-08T00:17:41.274Z,8.30
2022-11-08T00:20:20.324Z,10.10
2022-11-08T00:22:57.177Z,11.20
2022-11-08T00:25:34.035Z,13.50
2022-11-08T00:28:11.598Z,9.80
2022-11-08T00:30:48.286Z,5.80
2022-11-08T00:33:24.539Z,7.20
2022-11-08T00:36:06.690Z,6.30
2022-11-08T00:38:46.443Z,5.00
2022-11-08T00:41:23.190Z,6.50
2022-11-08T00:44:00.545Z,6.40
2022-11-08T00:46:37.642Z,7.70
2022-11-08T00:49:15.335Z,9.40
2022-11-08T00:51:51.648Z,9.90
2022-11-08T00:54:28.442Z,8.00
2022-11-08T00:57:05.862Z,9.40
2022-11-08T00:59:42.684Z,7.90
2022-11-08T01:02:18.839Z,9.40
2022-11-08T01:04:55.493Z,8.60
2022-11-08T01:07:33.535Z,11.10
2022-11-08T01:10:13.771Z,9.30
2022-11-08T01:12:50.260Z,10.10
2022-11-08T01:15:26.348Z,7.80
2022-11-08T01:18:02.694Z,9.30
2022-11-08T01:20:44.341Z,9.70
2022-11-08T01:23:22.320Z,10.70
2022-11-08T01:25:59.229Z,9.70
2022-11-08T01:28:43.842Z,10.20
2022-11-08T01:31:23.569Z,10.90
2022-11-08T01:34:02.248Z,11.80
2022-11-08T01:36:39.256Z,11.20
2022-11-08T01:39:16.655Z,10.40
2022-11-08T01:41:52.798Z,10.30
2022-11-08T01:44:29.849Z,8.60
2022-11-08T01:47:09.119Z,9.10
2022-11-08T01:49:51.543Z,9.60
2022-11-08T01:52:43.479Z,9.30
2022-11-08T01:55:25.087Z,8.20
2022-11-08T01:58:07.879Z,8.30
2022-11-08T02:00:45.017Z,9.10
2022-11-08T02:03:27.806Z,7.80
2022-11-08T02:06:05.966Z,8.50
2022-11-08T02:08:46.348Z,7.40
2022-11-08T02:11:26.074Z,8.70
2022-11-08T02:14:03.518Z,10.80
2022-11-08T02:16:40.036Z,13.10
2022-11-08T02:19:25.394Z,9.90
2022-11-08T02:22:13.256Z,10.20
2022-11-08T02:24:50.884Z,10.00
2022-11-08T02:27:27.701Z,8.70
2022-11-08T02:30:04.940Z,6.00
2022-11-08T02:32:55.135Z,6.70
2022-11-08T02:35:31.999Z,7.60
2022-11-08T02:38:08.731Z,6.20
2022-11-08T02:40:55.925Z,7.70
2022-11-08T02:43:36.122Z,8.20
2022-11-08T02:46:14.397Z,8.70
2022-11-08T02:48:52.204Z,6.50
2022-11-08T02:51:27.958Z,9.90
2022-11-08T02:54:04.360Z,10.10
2022-11-08T02:56:41.512Z,7.80
2022-11-08T02:59:18.429Z,9.80
2022-11-08T03:01:55.351Z,10.30
2022-11-08T03:04:31.403Z,9.50
2022-11-08T03:07:08.150Z,8.10
2022-11-08T03:09:44.992Z,8.20
2022-11-08T03:12:21.482Z,7.70
2022-11-08T03:14:57.938Z,9.70
2022-11-08T03:17:34.714Z,8.10
2022-11-08T03:20:15.840Z,11.00
2022-11-08T03:22:59.329Z,7.00
2022-11-08T03:25:35.936Z,6.70
2022-11-08T03:28:20.236Z,6.00
2022-11-08T03:30:59.766Z,5.90
2022-11-08T03:33:36.305Z,4.50
2022-11-08T03:36:14.645Z,5.60
2022-11-08T03:38:51.580Z,4.20
2022-11-08T03:41:27.724Z,3.80
2022-11-08T03:44:04.186Z,4.50
2022-11-08T03:46:40.887Z,5.90
2022-11-08T03:49:17.993Z,7.90
2022-11-08T03:51:54.557Z,8.50
2022-11-08T03:54:31.947Z,7.20
2022-11-08T03:57:08.833Z,7.60
2022-11-08T03:59:45.064Z,9.60
2022-11-08T04:02:21.255Z,8.80
2022-11-08T04:04:58.477Z,10.40
2022-11-08T04:07:34.539Z,9.60
2022-11-08T04:10:11.632Z,11.00
2022-11-08T04:13:04.817Z,13.60
2022-11-08T04:15:40.785Z,14.40
2022-11-08T04:18:33.285Z,14.50
2022-11-08T04:21:23.899Z,15.80
2022-11-08T04:24:00.295Z,12.60
2022-11-08T04:26:36.423Z,15.10
2022-11-08T04:29:12.646Z,12.90
2022-11-08T04:31:48.384Z,17.40
2022-11-08T04:34:24.795Z,16.70
2022-11-08T04:37:02.226Z,12.90
2022-11-08T04:39:38.749Z,13.90
2022-11-08T04:42:15.166Z,13.30
2022-11-08T04:44:51.257Z,14.00
2022-11-08T04:47:28.136Z,15.30
2022-11-08T04:50:04.692Z,13.70
2022-11-08T04:52:41.160Z,16.30
2022-11-08T04:55:19.194Z,12.90
2022-11-08T04:57:59.833Z,17.00
2022-11-08T05:00:36.718Z,15.00
2022-11-08T05:03:13.676Z,14.00
2022-11-08T05:05:50.235Z,15.40
2022-11-08T05:08:26.392Z,12.90
2022-11-08T05:11:07.329Z,11.70
2022-11-08T05:13:43.175Z,11.90
2022-11-08T05:16:22.340Z,12.00
2022-11-08T05:18:58.370Z,11.00
2022-11-08T05:21:52.120Z,18.40
2022-11-08T05:24:27.688Z,12.40
2022-11-08T05:27:03.984Z,19.40
2022-11-08T05:29:42.393Z,10.50
2022-11-08T05:32:18.686Z,12.20
2022-11-08T05:34:54.617Z,11.90
2022-11-08T05:37:32.043Z,12.00
2022-11-08T05:40:11.429Z,14.10
2022-11-08T05:42:48.452Z,11.80
2022-11-08T05:45:25.840Z,10.40
2022-11-08T05:48:04.188Z,11.00
2022-11-08T05:50:41.312Z,13.90
2022-11-08T05:53:21.127Z,8.90
2022-11-08T05:56:01.813Z,9.60
2022-11-08T05:58:39.922Z,9.00
2022-11-08T06:01:17.946Z,10.60
2022-11-08T06:03:54.793Z,8.90
2022-11-08T06:06:31.135Z,8.50
2022-11-08T06:09:08.131Z,8.70
2022-11-08T06:11:44.029Z,9.70
2022-11-08T06:14:20.171Z,9.70
2022-11-08T06:16:56.610Z,7.90
2022-11-08T06:19:32.602Z,7.60
2022-11-08T06:22:09.767Z,8.70
2022-11-08T06:24:46.217Z,7.40
2022-11-08T06:27:22.184Z,8.40
2022-11-08T06:29:58.956Z,6.10
2022-11-08T06:32:35.729Z,5.30
2022-11-08T06:35:14.409Z,5.90
2022-11-08T06:37:54.427Z,9.60
2022-11-08T06:40:32.451Z,4.90
2022-11-08T06:43:08.844Z,5.90
2022-11-08T06:45:44.976Z,6.50
2022-11-08T06:48:21.580Z,9.30
2022-11-08T06:50:58.537Z,8.10
2022-11-08T06:53:34.839Z,8.10
2022-11-08T06:56:12.305Z,9.10
2022-11-08T06:58:48.130Z,7.30
2022-11-08T07:01:23.974Z,7.30
2022-11-08T07:03:59.602Z,8.70
2022-11-08T07:06:35.310Z,9.40
2022-11-08T07:09:11.861Z,5.50
2022-11-08T07:11:48.542Z,7.50
2022-11-08T07:14:25.316Z,10.90
2022-11-08T07:17:01.396Z,10.70
2022-11-08T07:19:38.211Z,8.90
2022-11-08T07:22:14.835Z,11.60
2022-11-08T07:24:51.355Z,8.30
2022-11-08T07:27:28.548Z,9.30
2022-11-08T07:30:05.095Z,12.00
2022-11-08T07:32:41.256Z,8.00
2022-11-08T07:35:18.138Z,11.50
2022-11-08T07:37:54.014Z,12.20
2022-11-08T07:40:30.478Z,11.70
2022-11-08T07:43:13.938Z,10.70
2022-11-08T07:45:55.989Z,10.30
2022-11-08T07:48:33.131Z,10.60
2022-11-08T07:51:09.929Z,8.10
2022-11-08T07:53:47.285Z,10.00
2022-11-08T07:56:24.074Z,10.20
2022-11-08T07:59:00.342Z,10.20
2022-11-08T08:01:37.039Z,8.50
2022-11-08T08:04:14.173Z,9.10
2022-11-08T08:06:50.955Z,9.30
2022-11-08T08:09:27.853Z,11.80
2022-11-08T08:12:04.218Z,11.20
2022-11-08T08:14:40.470Z,11.60
2022-11-08T08:17:16.955Z,14.70
2022-11-08T08:19:52.868Z,11.60
2022-11-08T08:22:28.617Z,9.80
2022-11-08T08:25:05.101Z,11.00
2022-11-08T08:27:41.527Z,13.60
2022-11-08T08:30:20.992Z,21.50
2022-11-08T08:33:26.737Z,13.90
2022-11-08T08:36:01.444Z,10.00
2022-11-08T08:38:44.283Z,14.50
2022-11-08T08:41:20.095Z,10.00
2022-11-08T08:43:56.206Z,11.10
2022-11-08T08:46:33.302Z,13.30
2022-11-08T08:49:10.092Z,12.60
2022-11-08T08:51:46.030Z,12.70
2022-11-08T08:54:26.861Z,18.50
2022-11-08T08:57:05.355Z,13.70
2022-11-08T09:02:39.936Z,12.10
2022-11-08T09:05:18.925Z,10.00
2022-11-08T09:07:58.861Z,11.10
2022-11-08T09:10:34.874Z,14.30
2022-11-08T09:13:10.786Z,14.60
2022-11-08T09:15:47.158Z,13.50
2022-11-08T09:18:23.297Z,13.70
2022-11-08T09:21:01.875Z,15.10
2022-11-08T09:23:39.009Z,16.10
2022-11-08T09:26:15.726Z,12.00
2022-11-08T09:28:52.137Z,15.10
2022-11-08T09:31:28.410Z,17.40
2022-11-08T09:34:04.833Z,15.80
2022-11-08T09:36:41.327Z,14.90
2022-11-08T09:39:17.901Z,14.20
2022-11-08T09:42:25.970Z,13.30
2022-11-08T09:45:27.011Z,13.80
2022-11-08T09:48:07.572Z,12.20
2022-11-08T09:50:48.170Z,15.90
2022-11-08T09:53:36.262Z,15.20
2022-11-08T09:56:19.179Z,13.50
2022-11-08T09:59:02.337Z,15.10
2022-11-08T10:01:40.233Z,16.70
2022-11-08T10:04:23.951Z,18.20
2022-11-08T10:07:25.356Z,19.50
2022-11-08T10:10:34.393Z,15.80
2022-11-08T10:13:25.129Z,15.00
2022-11-08T10:16:12.589Z,16.30
2022-11-08T10:19:13.903Z,15.20
2022-11-08T10:22:05.341Z,15.50
2022-11-08T10:24:50.467Z,13.60
2022-11-08T10:27:35.829Z,12.20
2022-11-08T10:30:24.453Z,14.40
2022-11-08T10:33:02.697Z,13.00
2022-11-08T10:35:44.555Z,14.00
2022-11-08T10:38:36.865Z,14.30
2022-11-08T10:41:22.587Z,12.90
2022-11-08T10:44:04.581Z,14.30
2022-11-08T10:46:48.712Z,17.60
2022-11-08T10:49:30.064Z,13.70
2022-11-08T10:52:19.147Z,14.50
2022-11-08T10:54:57.038Z,14.60
2022-11-08T10:57:45.327Z,15.60
2022-11-08T11:00:36.041Z,16.50
2022-11-08T11:03:30.730Z,11.70
2022-11-08T11:06:22.044Z,13.80
2022-11-08T11:09:03.119Z,13.60
2022-11-08T11:11:45.528Z,15.10
2022-11-08T11:14:24.585Z,12.50
2022-11-08T11:17:19.924Z,12.40
2022-11-08T11:20:02.100Z,11.90
2022-11-08T11:22:40.030Z,10.20
2022-11-08T11:25:25.025Z,14.80
2022-11-08T11:28:04.468Z,14.50
2022-11-08T11:30:42.488Z,12.80
2022-11-08T11:33:29.983Z,10.70
2022-11-08T11:36:13.867Z,12.40
2022-11-08T11:39:04.303Z,12.30
2022-11-08T11:41:49.809Z,10.30
2022-11-08T11:44:32.651Z,10.90
2022-11-08T11:47:21.592Z,13.10
2022-11-08T11:50:03.130Z,10.80
2022-11-08T11:52:39.913Z,14.10
2022-11-08T11:55:20.639Z,13.90
2022-11-08T11:58:16.888Z,14.00
2022-11-08T12:01:08.155Z,13.90
2022-11-08T12:04:20.043Z,10.60
2022-11-08T12:07:06.279Z,14.70
2022-11-08T12:10:05.512Z,13.60
2022-11-08T12:12:59.840Z,10.90
2022-11-08T12:15:45.183Z,12.40
2022-11-08T12:18:50.662Z,11.00
2022-11-08T12:21:41.994Z,14.00
2022-11-08T12:24:41.792Z,11.20
2022-11-08T12:27:37.092Z,12.70
2022-11-08T12:30:22.502Z,10.70
2022-11-08T12:33:33.645Z,9.20
2022-11-08T12:36:26.518Z,12.80
2022-11-08T12:39:23.323Z,11.00
2022-11-08T12:42:17.180Z,13.40
2022-11-08T12:45:24.374Z,10.30
2022-11-08T12:48:11.911Z,11.20
2022-11-08T12:51:01.574Z,9.30
2022-11-08T12:54:13.784Z,10.40
2022-11-08T12:56:51.960Z,8.80
2022-11-08T12:59:35.388Z,9.70
2022-11-08T13:02:19.187Z,12.00
2022-11-08T13:05:06.941Z,11.10
2022-11-08T13:07:52.379Z,9.60
2022-11-08T13:10:47.752Z,8.50
2022-11-08T13:13:47.862Z,11.00
2022-11-08T13:16:25.580Z,16.00
2022-11-08T13:19:04.704Z,11.40
2022-11-08T13:21:44.632Z,10.10
2022-11-08T13:24:45.564Z,8.00
2022-11-08T13:27:38.015Z,12.90
2022-11-08T13:30:43.994Z,11.90
2022-11-08T13:33:34.399Z,12.40
2022-11-08T13:36:33.729Z,10.30
2022-11-08T13:43:25.996Z,11.10
2022-11-08T13:46:38.262Z,7.60
2022-11-08T13:49:22.880Z,10.00
2022-11-08T13:52:48.399Z,11.10
2022-11-08T13:55:53.257Z,11.30
2022-11-08T13:58:42.397Z,9.00
2022-11-08T14:02:01.596Z,10.90
2022-11-08T14:04:39.014Z,10.20
2022-11-08T14:07:25.592Z,10.20
2022-11-08T14:10:14.381Z,17.40
2022-11-08T14:12:58.115Z,15.00
2022-11-08T14:15:42.781Z,11.90
2022-11-08T14:18:30.698Z,14.30
2022-11-08T14:21:08.396Z,15.20
2022-11-08T14:23:48.432Z,18.30
2022-11-08T14:26:28.077Z,13.90
2022-11-08T14:29:11.202Z,16.10
2022-11-08T14:32:02.393Z,19.50
2022-11-08T14:34:41.245Z,14.40
2022-11-08T14:37:25.068Z,14.80
2022-11-08T14:40:02.085Z,18.60
2022-11-08T14:42:38.740Z,13.00
2022-11-08T14:45:25.922Z,13.90
2022-11-08T14:48:08.981Z,17.50
2022-11-08T14:50:45.139Z,12.50
2022-11-08T14:53:35.356Z,19.20
2022-11-08T14:56:24.034Z,17.90
2022-11-08T14:59:00.752Z,23.40
2022-11-08T15:01:37.848Z,28.80
2022-11-08T15:04:22.433Z,22.00
2022-11-08T15:07:01.023Z,18.20
2022-11-08T15:09:40.136Z,18.10
2022-11-08T15:12:25.810Z,21.90
2022-11-08T15:15:05.119Z,41.10
2022-11-08T15:17:44.897Z,54.30
2022-11-08T15:20:29.491Z,32.10
2022-11-08T15:23:05.515Z,21.60
2022-11-08T15:25:43.374Z,19.70
2022-11-08T15:28:36.235Z,14.10
2022-11-08T15:31:18.449Z,16.50
2022-11-08T15:33:54.477Z,17.60
2022-11-08T15:36:36.699Z,18.70
2022-11-08T15:39:26.038Z,22.80
2022-11-08T15:42:25.480Z,21.90
2022-11-08T15:45:25.777Z,19.80
2022-11-08T15:48:22.382Z,21.00
2022-11-08T15:50:59.080Z,13.60
2022-11-08T15:53:35.910Z,13.80
2022-11-08T15:56:15.838Z,10.90
2022-11-08T15:58:52.821Z,10.80
2022-11-08T16:01:29.495Z,10.70
2022-11-08T16:04:06.067Z,14.20
2022-11-08T16:06:41.946Z,9.70
2022-11-08T16:09:18.360Z,10.40
2022-11-08T16:11:54.951Z,14.00
2022-11-08T16:14:31.941Z,8.80
2022-11-08T16:17:11.856Z,11.00
2022-11-08T16:19:47.999Z,10.90
2022-11-08T16:22:24.237Z,9.70
2022-11-08T16:25:00.453Z,13.10
2022-11-08T16:27:37.148Z,11.00
2022-11-08T16:30:21.649Z,8.90
2022-11-08T16:32:58.046Z,11.70
2022-11-08T16:35:34.067Z,12.30
2022-11-08T16:38:13.337Z,9.80
2022-11-08T16:40:50.083Z,10.30
2022-11-08T16:43:26.659Z,9.50
2022-11-08T16:46:07.277Z,9.30
2022-11-08T16:48:48.626Z,11.40
2022-11-08T16:51:26.265Z,10.30
2022-11-08T16:54:03.478Z,11.30
2022-11-08T16:56:40.376Z,10.50
2022-11-08T16:59:15.640Z,11.20
2022-11-08T17:01:52.593Z,8.60
2022-11-08T17:04:29.120Z,9.90
2022-11-08T17:07:07.851Z,13.50
2022-11-08T17:09:47.347Z,8.00
2022-11-08T17:12:23.402Z,10.40
2022-11-08T17:15:00.164Z,7.80
2022-11-08T17:17:37.274Z,9.60
2022-11-08T17:20:20.821Z,11.60
2022-11-08T17:23:02.835Z,11.10
2022-11-08T17:25:40.976Z,10.20
2022-11-08T17:28:18.374Z,11.70
2022-11-08T17:30:55.254Z,12.50
2022-11-08T17:33:31.412Z,9.40
2022-11-08T17:36:14.287Z,9.90
2022-11-08T17:38:50.853Z,9.20
2022-11-08T17:41:27.343Z,11.10
2022-11-08T17:44:04.262Z,10.20
2022-11-08T17:46:40.523Z,12.60
2022-11-08T17:49:18.123Z,12.00
2022-11-08T17:51:54.442Z,11.30
2022-11-08T17:54:30.531Z,13.40
2022-11-08T17:57:06.760Z,10.80
2022-11-08T17:59:45.020Z,10.20
2022-11-08T18:02:21.722Z,8.30
2022-11-08T18:04:58.148Z,11.30
2022-11-08T18:07:34.010Z,8.80
2022-11-08T18:10:12.840Z,9.10
2022-11-08T18:12:49.250Z,14.20
2022-11-08T18:15:25.576Z,8.10
2022-11-08T18:18:02.654Z,8.90
2022-11-08T18:20:40.336Z,8.30
2022-11-08T18:23:16.900Z,11.90
2022-11-08T18:25:56.154Z,13.90
2022-11-08T18:28:31.866Z,9.00
2022-11-08T18:31:14.298Z,9.30
2022-11-08T18:33:50.708Z,11.40
2022-11-08T18:36:28.385Z,12.80
2022-11-08T18:39:06.412Z,9.50
2022-11-08T18:41:42.898Z,8.50
2022-11-08T18:44:19.179Z,11.40
2022-11-08T18:46:55.507Z,9.30
2022-11-08T18:49:32.748Z,9.90
2022-11-08T18:52:09.583Z,12.70
2022-11-08T18:54:47.810Z,10.80
2022-11-08T18:57:25.023Z,12.70
2022-11-08T19:00:02.793Z,11.30
2022-11-08T19:02:38.878Z,11.20
2022-11-08T19:05:15.889Z,12.70
2022-11-08T19:07:52.612Z,10.60
2022-11-08T19:10:28.318Z,23.90
2022-11-08T19:13:04.682Z,15.80
2022-11-08T19:15:40.460Z,14.00
2022-11-08T19:18:16.819Z,12.00
2022-11-08T19:20:59.809Z,11.80
2022-11-08T19:23:35.443Z,12.40
2022-11-08T19:26:15.550Z,14.30
2022-11-08T19:28:52.222Z,12.40
2022-11-08T19:31:29.439Z,14.60
2022-11-08T19:34:05.302Z,13.30
2022-11-08T19:36:43.681Z,12.90
2022-11-08T19:39:21.236Z,12.30
2022-11-08T19:41:57.928Z,11.50
2022-11-08T19:44:34.419Z,9.80
2022-11-08T19:47:09.753Z,12.70
2022-11-08T19:49:45.870Z,12.80
2022-11-08T19:52:22.220Z,10.40
2022-11-08T19:54:59.368Z,12.90
2022-11-08T19:57:36.016Z,17.10
2022-11-08T20:00:18.302Z,24.10
2022-11-08T20:02:54.791Z,16.20
2022-11-08T20:05:30.926Z,19.50
2022-11-08T20:08:07.705Z,11.50
2022-11-08T20:10:44.789Z,11.70
2022-11-08T20:13:21.308Z,13.40
2022-11-08T20:15:57.645Z,11.80
2022-11-08T20:18:33.507Z,14.30
2022-11-08T20:21:11.370Z,14.10
2022-11-08T20:23:47.655Z,14.00
2022-11-08T20:26:26.713Z,16.40
2022-11-08T20:29:02.958Z,16.20
2022-11-08T20:31:39.296Z,14.00
2022-11-08T20:34:16.084Z,16.50
2022-11-08T20:36:52.833Z,13.30
2022-11-08T20:39:28.727Z,12.80
2022-11-08T20:42:05.341Z,13.80
2022-11-08T20:44:41.127Z,12.50
2022-11-08T20:47:17.315Z,13.00
2022-11-08T20:49:53.523Z,12.40
2022-11-08T20:52:29.665Z,11.40
2022-11-08T20:55:07.948Z,17.00
2022-11-08T20:57:44.735Z,13.00
2022-11-08T21:00:51.922Z,14.90
2022-11-08T21:03:21.540Z,13.10
2022-11-08T21:06:02.400Z,17.40
2022-11-08T21:11:46.474Z,12.60
2022-11-08T21:14:23.866Z,10.10
2022-11-08T21:17:21.556Z,10.90
2022-11-08T21:19:56.837Z,15.10
2022-11-08T21:22:33.249Z,13.20
2022-11-08T21:25:10.768Z,16.80
2022-11-08T21:27:46.960Z,16.90
2022-11-08T21:30:24.246Z,18.20
2022-11-08T21:33:00.821Z,17.10
2022-11-08T21:35:37.227Z,14.90
2022-11-08T21:38:13.271Z,17.00
2022-11-08T21:40:50.108Z,15.50
2022-11-08T21:43:26.228Z,11.80
2022-11-08T21:46:02.918Z,11.80
2022-11-08T21:48:39.258Z,15.00
2022-11-08T21:51:16.478Z,11.70
2022-11-08T21:53:56.071Z,15.40
2022-11-08T21:56:35.884Z,12.00
2022-11-08T21:59:13.901Z,13.20
2022-11-08T22:01:50.732Z,12.30
2022-11-08T22:04:28.071Z,18.20
2022-11-08T22:07:05.249Z,17.70
2022-11-08T22:09:42.005Z,13.90
2022-11-08T22:12:18.070Z,12.50
2022-11-08T22:14:54.616Z,14.90
2022-11-08T22:17:30.965Z,13.50
2022-11-08T22:20:10.487Z,17.80
2022-11-08T22:22:47.240Z,12.00
2022-11-08T22:25:25.011Z,12.10
2022-11-08T22:28:01.478Z,13.40
2022-11-08T22:30:37.582Z,12.10
2022-11-08T22:33:13.912Z,20.60
2022-11-08T22:35:50.899Z,14.10
2022-11-08T22:38:26.832Z,20.30
2022-11-08T22:41:03.063Z,20.20
2022-11-08T22:43:40.552Z,18.00
2022-11-08T22:46:16.687Z,22.80
2022-11-08T22:48:53.014Z,26.20
2022-11-08T22:51:30.083Z,19.20
2022-11-08T22:54:08.352Z,20.70
2022-11-08T22:56:44.808Z,19.10
2022-11-08T22:59:21.599Z,21.20
2022-11-08T23:01:58.390Z,23.90
2022-11-08T23:04:34.637Z,26.70
2022-11-08T23:07:11.822Z,25.90
2022-11-08T23:09:48.054Z,23.60
2022-11-08T23:12:40.729Z,29.50
2022-11-08T23:15:37.268Z,24.70
2022-11-08T23:18:13.172Z,22.60
2022-11-08T23:21:06.825Z,17.80
2022-11-08T23:24:00.110Z,18.60
2022-11-08T23:26:53.197Z,19.40
2022-11-08T23:29:46.831Z,19.70
2022-11-08T23:32:23.054Z,17.80
2022-11-08T23:34:59.294Z,22.30
2022-11-08T23:37:35.677Z,18.70
2022-11-08T23:40:34.281Z,20.80
2022-11-08T23:43:40.754Z,21.80
2022-11-08T23:46:17.574Z,18.90
2022-11-08T23:48:54.057Z,20.90
2022-11-08T23:51:30.683Z,17.70
2022-11-08T23:54:07.160Z,18.10
2022-11-08T23:56:44.113Z,17.90
2022-11-08T23:59:20.868Z,19.30
